createdAt,value
2019-01-27T00:03:30.868Z,18.47
2019-01-27T00:07:51.642Z,20.57
2019-01-27T00:12:05.815Z,23.20
2019-01-27T00:16:20.403Z,25.30
2019-01-27T00:20:34.724Z,24.70
2019-01-27T00:24:49.267Z,27.13
2019-01-27T00:29:03.889Z,27.97
2019-01-27T00:33:18.307Z,24.93
2019-01-27T00:37:19.178Z,26.70
2019-01-27T00:41:39.917Z,26.00
2019-01-27T00:46:01.033Z,25.20
2019-01-27T00:50:21.873Z,23.50
2019-01-27T00:54:42.652Z,21.63
2019-01-27T00:59:03.484Z,24.43
2019-01-27T01:03:24.362Z,25.00
2019-01-27T01:07:25.262Z,25.73
2019-01-27T01:11:46.048Z,24.67
2019-01-27T01:15:59.937Z,24.17
2019-01-27T01:20:01.012Z,21.33
2019-01-27T01:24:21.836Z,20.80
2019-01-27T01:28:42.651Z,22.90
2019-01-27T01:33:03.499Z,22.73
2019-01-27T01:37:24.355Z,23.80
2019-01-27T01:41:45.098Z,22.53
2019-01-27T01:46:05.908Z,25.33
2019-01-27T01:50:26.891Z,25.27
2019-01-27T01:54:48.353Z,27.53
2019-01-27T01:58:49.887Z,23.97
2019-01-27T02:06:58.982Z,20.93
2019-01-27T02:11:20.028Z,18.27
2019-01-27T02:15:34.501Z,22.33
2019-01-27T02:19:35.697Z,21.27
2019-01-27T02:23:56.586Z,20.43
2019-01-27T02:27:57.560Z,18.73
2019-01-27T02:31:58.608Z,18.67
2019-01-27T02:36:19.381Z,21.87
2019-01-27T02:40:40.183Z,19.87
2019-01-27T02:45:00.926Z,17.43
2019-01-27T02:49:21.872Z,15.90
2019-01-27T02:53:42.611Z,14.30
2019-01-27T02:58:03.532Z,12.80
2019-01-27T03:02:24.496Z,14.17
2019-01-27T03:07:05.236Z,15.93
2019-01-27T03:11:26.183Z,14.67
2019-01-27T03:15:40.141Z,13.00
2019-01-27T03:19:54.126Z,13.50
2019-01-27T03:24:08.513Z,12.87
2019-01-27T03:28:23.195Z,12.30
2019-01-27T03:32:37.493Z,13.20
2019-01-27T03:36:52.042Z,12.57
2019-01-27T03:41:06.501Z,10.43
2019-01-27T03:45:21.233Z,10.53
2019-01-27T03:49:35.672Z,9.33
2019-01-27T03:53:49.591Z,7.97
2019-01-27T03:58:04.013Z,8.67
2019-01-27T04:02:18.618Z,9.33
2019-01-27T04:06:33.057Z,9.33
2019-01-27T04:10:46.797Z,9.50
2019-01-27T04:15:00.775Z,10.27
2019-01-27T04:19:15.262Z,11.53
2019-01-27T04:23:29.880Z,14.17
2019-01-27T04:27:43.648Z,12.90
2019-01-27T04:31:44.652Z,13.30
2019-01-27T04:36:05.377Z,13.20
2019-01-27T04:40:26.320Z,12.23
2019-01-27T04:44:47.062Z,13.03
2019-01-27T04:48:47.982Z,10.50
2019-01-27T04:53:08.834Z,10.07
2019-01-27T04:57:29.588Z,7.47
2019-01-27T05:01:50.342Z,2.97
2019-01-27T05:06:11.155Z,2.53
2019-01-27T05:10:31.891Z,2.70
2019-01-27T05:14:46.179Z,2.97
2019-01-27T05:19:00.540Z,3.07
2019-01-27T05:23:15.306Z,3.23
2019-01-27T05:27:29.976Z,2.50
2019-01-27T05:31:44.716Z,2.40
2019-01-27T05:35:59.363Z,2.37
2019-01-27T05:40:00.334Z,3.13
2019-01-27T05:44:21.155Z,2.87
2019-01-27T05:48:42.010Z,2.70
2019-01-27T05:53:02.959Z,2.50
2019-01-27T05:57:23.721Z,2.60
2019-01-27T06:01:44.451Z,3.10
2019-01-27T06:06:05.185Z,3.30
2019-01-27T06:10:26.010Z,2.93
2019-01-27T06:14:40.005Z,2.97
2019-01-27T06:18:54.679Z,2.30
2019-01-27T06:23:09.304Z,2.67
2019-01-27T06:27:23.781Z,2.27
2019-01-27T06:31:37.761Z,2.20
2019-01-27T06:35:52.427Z,2.37
2019-01-27T06:40:06.881Z,2.40
2019-01-27T06:44:21.424Z,3.20
2019-01-27T06:48:36.084Z,2.47
2019-01-27T06:52:50.681Z,3.67
2019-01-27T06:57:04.984Z,4.23
2019-01-27T07:01:21.169Z,3.93
2019-01-27T07:05:36.845Z,3.33
2019-01-27T07:09:55.399Z,3.07
2019-01-27T07:14:12.000Z,2.93
2019-01-27T07:18:31.680Z,2.77
2019-01-27T07:22:47.309Z,3.70
2019-01-27T07:27:04.471Z,3.23
2019-01-27T07:35:48.475Z,4.53
2019-01-27T07:40:05.026Z,4.70
2019-01-27T07:44:24.631Z,5.27
2019-01-27T07:48:59.164Z,3.60
2019-01-27T07:53:33.074Z,3.73
2019-01-27T07:58:07.746Z,5.70
2019-01-27T08:06:55.735Z,3.70
2019-01-27T08:11:29.446Z,2.30
2019-01-27T08:15:48.641Z,2.43
2019-01-27T08:20:22.885Z,2.60
2019-01-27T08:24:38.642Z,2.90
2019-01-27T08:28:55.308Z,4.77
2019-01-27T08:37:58.462Z,3.70
2019-01-27T08:42:33.028Z,3.60
2019-01-27T08:46:48.838Z,2.77
2019-01-27T08:51:03.430Z,3.33
2019-01-27T08:55:45.964Z,4.10
2019-01-27T09:00:28.554Z,2.10
2019-01-27T09:14:00.089Z,2.03
2019-01-27T09:18:33.921Z,1.50
2019-01-27T09:23:08.573Z,1.43
2019-01-27T09:27:24.604Z,1.67
2019-01-27T09:31:41.297Z,1.90
2019-01-27T09:36:15.035Z,1.87
2019-01-27T09:40:33.864Z,1.83
2019-01-27T09:45:08.150Z,1.80
2019-01-27T09:49:41.770Z,2.17
2019-01-27T09:54:01.085Z,2.27
2019-01-27T09:58:16.995Z,2.07
2019-01-27T10:02:34.880Z,2.00
2019-01-27T10:06:51.148Z,1.80
2019-01-27T10:11:10.639Z,1.53
2019-01-27T10:15:26.349Z,1.80
2019-01-27T10:19:42.914Z,1.53
2019-01-27T10:24:04.154Z,2.47
2019-01-27T10:28:25.890Z,1.50
2019-01-27T10:32:48.799Z,1.80
2019-01-27T10:37:29.603Z,1.63
2019-01-27T10:42:10.441Z,1.50
2019-01-27T10:46:53.191Z,1.50
2019-01-27T10:51:33.874Z,1.63
2019-01-27T11:05:11.882Z,1.00
2019-01-27T11:09:53.359Z,1.20
2019-01-27T11:14:09.931Z,1.50
2019-01-27T11:22:59.909Z,2.47
2019-01-27T11:27:40.704Z,1.57
2019-01-27T11:32:21.415Z,1.00
2019-01-27T11:37:02.059Z,1.43
2019-01-27T11:41:42.695Z,1.43
2019-01-27T11:46:23.918Z,2.03
2019-01-27T11:54:37.853Z,1.90
2019-01-27T11:59:01.391Z,1.40
2019-01-27T12:03:22.154Z,1.20
2019-01-27T12:07:43.114Z,1.37
2019-01-27T12:12:03.898Z,1.37
2019-01-27T12:16:18.677Z,1.17
2019-01-27T12:20:19.778Z,1.80
2019-01-27T12:24:20.785Z,0.80
2019-01-27T12:28:41.654Z,1.20
2019-01-27T12:33:22.383Z,1.20
2019-01-27T12:37:43.312Z,2.63
2019-01-27T12:42:04.410Z,2.37
2019-01-27T12:46:25.236Z,1.43
2019-01-27T12:50:46.072Z,1.30
2019-01-27T12:55:26.661Z,1.40
2019-01-27T12:59:47.467Z,1.50
2019-01-27T13:08:17.482Z,2.17
2019-01-27T13:12:38.258Z,1.90
2019-01-27T13:16:52.919Z,1.90
2019-01-27T13:21:07.782Z,1.73
2019-01-27T13:30:30.846Z,1.13
2019-01-27T13:34:56.192Z,1.53
2019-01-27T13:39:14.577Z,1.40
2019-01-27T13:43:35.420Z,1.03
2019-01-27T13:47:58.807Z,1.50
2019-01-27T13:52:18.998Z,1.40
2019-01-27T13:56:39.877Z,1.70
2019-01-27T14:01:22.544Z,1.63
2019-01-27T14:05:43.414Z,1.90
2019-01-27T14:10:24.298Z,1.50
2019-01-27T14:14:38.762Z,1.40
2019-01-27T14:18:53.327Z,2.47
2019-01-27T14:23:07.771Z,2.00
2019-01-27T14:27:22.418Z,1.80
2019-01-27T14:31:36.821Z,1.60
2019-01-27T14:35:50.853Z,3.03
2019-01-27T14:40:05.465Z,3.97
2019-01-27T14:44:26.823Z,2.13
2019-01-27T14:48:47.796Z,2.70
2019-01-27T14:53:09.235Z,2.17
2019-01-27T14:57:30.303Z,3.40
2019-01-27T15:01:31.608Z,2.97
2019-01-27T15:05:52.836Z,3.53
2019-01-27T15:10:14.886Z,4.30
2019-01-27T15:14:15.871Z,6.33
2019-01-27T15:18:36.726Z,5.20
2019-01-27T15:22:57.645Z,5.03
2019-01-27T15:27:18.488Z,5.97
2019-01-27T15:31:39.334Z,6.00
2019-01-27T15:35:57.517Z,5.27
2019-01-27T15:39:58.697Z,4.93
2019-01-27T15:43:59.940Z,5.77
2019-01-27T15:48:21.240Z,3.97
2019-01-27T15:52:22.210Z,4.40
2019-01-27T15:56:43.162Z,4.07
2019-01-27T16:01:04.192Z,5.87
2019-01-27T16:05:25.099Z,4.40
2019-01-27T16:09:46.072Z,3.03
2019-01-27T16:13:47.184Z,3.87
2019-01-27T16:18:08.126Z,4.77
2019-01-27T16:22:09.231Z,2.93
2019-01-27T16:26:30.163Z,3.43
2019-01-27T16:31:10.914Z,3.80
2019-01-27T16:35:31.807Z,3.03
2019-01-27T16:39:52.645Z,2.40
2019-01-27T16:44:13.393Z,2.83
2019-01-27T16:48:34.424Z,3.60
2019-01-27T16:52:55.389Z,3.23
2019-01-27T16:57:17.173Z,2.80
2019-01-27T17:01:37.995Z,2.87
2019-01-27T17:05:59.164Z,3.13
2019-01-27T17:10:21.411Z,2.30
2019-01-27T17:14:35.856Z,3.13
2019-01-27T17:18:50.598Z,1.70
2019-01-27T17:22:51.726Z,1.40
2019-01-27T17:26:52.810Z,1.60
2019-01-27T17:31:13.838Z,1.80
2019-01-27T17:35:15.397Z,1.60
2019-01-27T17:39:36.160Z,1.50
2019-01-27T17:43:37.144Z,1.50
2019-01-27T17:47:58.140Z,1.43
2019-01-27T17:52:19.116Z,1.40
2019-01-27T17:56:40.094Z,1.10
2019-01-27T18:01:20.939Z,2.77
2019-01-27T18:10:26.911Z,1.90
2019-01-27T18:14:41.330Z,1.20
2019-01-27T18:18:57.163Z,2.60
2019-01-27T18:22:58.193Z,1.70
2019-01-27T18:26:59.235Z,2.33
2019-01-27T18:31:00.220Z,4.47
2019-01-27T18:35:21.745Z,2.67
2019-01-27T18:39:42.698Z,2.33
2019-01-27T18:44:04.106Z,2.40
2019-01-27T18:48:05.558Z,1.60
2019-01-27T18:52:31.239Z,4.83
2019-01-27T18:56:49.359Z,1.70
2019-01-27T19:10:07.888Z,3.17
2019-01-27T19:14:26.900Z,2.97
2019-01-27T19:19:01.599Z,3.77
2019-01-27T19:23:37.094Z,5.63
2019-01-27T19:32:21.239Z,8.60
2019-01-27T19:36:42.204Z,8.80
2019-01-27T19:41:03.331Z,10.07
2019-01-27T19:45:45.995Z,10.73
2019-01-27T19:54:19.394Z,15.93
2019-01-27T19:59:00.225Z,6.30
2019-01-27T20:03:21.239Z,7.20
2019-01-27T20:07:42.080Z,5.87
2019-01-27T20:17:03.302Z,10.03
2019-01-27T20:21:43.968Z,9.03
2019-01-27T20:26:25.356Z,12.17
2019-01-27T20:30:48.693Z,8.30
2019-01-27T20:35:10.157Z,7.40
2019-01-27T20:39:50.928Z,5.07
2019-01-27T20:57:51.893Z,9.10
2019-01-27T21:02:33.027Z,10.30
2019-01-27T21:11:43.208Z,22.87
2019-01-27T21:16:02.616Z,14.97
2019-01-27T21:20:16.916Z,13.70
2019-01-27T21:24:31.302Z,21.57
2019-01-27T21:28:45.322Z,10.43
2019-01-27T21:32:59.187Z,12.30
2019-01-27T21:37:13.912Z,10.40
2019-01-27T21:41:28.469Z,11.77
2019-01-27T21:45:42.207Z,9.77
2019-01-27T21:49:56.862Z,12.60
2019-01-27T21:54:11.177Z,9.03
2019-01-27T21:58:25.644Z,10.60
2019-01-27T22:02:26.709Z,8.07
2019-01-27T22:06:47.453Z,8.87
2019-01-27T22:10:48.461Z,8.50
2019-01-27T22:15:09.922Z,7.53
2019-01-27T22:19:10.916Z,8.30
2019-01-27T22:23:31.761Z,10.00
2019-01-27T22:27:44.711Z,7.83
2019-01-27T22:31:55.511Z,8.10
2019-01-27T22:36:09.518Z,7.53
2019-01-27T22:40:32.273Z,8.80
2019-01-27T22:44:53.116Z,8.30
2019-01-27T22:54:26.281Z,6.63
2019-01-27T22:58:47.075Z,6.73
2019-01-27T23:03:07.917Z,7.70
2019-01-27T23:07:28.653Z,6.60
2019-01-27T23:11:49.413Z,6.27
2019-01-27T23:16:10.391Z,7.77
2019-01-27T23:20:31.313Z,6.90
2019-01-27T23:25:04.640Z,6.50
2019-01-27T23:29:14.913Z,6.50
2019-01-27T23:33:35.842Z,6.77
2019-01-27T23:37:49.942Z,6.47
2019-01-27T23:42:07.207Z,7.53
2019-01-27T23:46:21.080Z,7.87
2019-01-27T23:50:35.316Z,7.07
2019-01-27T23:54:49.733Z,6.23
2019-01-27T23:59:04.397Z,7.97
